Time;durP1;ratioP1;P1;durP2;ratioP2;P2;SDS_P1;SDS_P2;PMS_P1;PMS_P2;Temp;Humidity;BMP_temperature;BMP_pressure;BME280_temperature;BME280_humidity;BME280_pressure;Samples;Min_cycle;Max_cycle;Signal;HPM_P1;HPM_P2
2021/07/04 00:00:23;;;;;;;17.95;16.25;;;18.70;99.20;;;;;;5085276;28;20032;-75
2021/07/04 00:02:53;;;;;;;21.83;19.52;;;18.70;99.20;;;;;;5082234;28;20032;-75
2021/07/04 00:05:21;;;;;;;19.40;17.17;;;18.70;99.40;;;;;;5067531;28;20051;-75
2021/07/04 00:07:48;;;;;;;19.23;17.25;;;18.70;99.50;;;;;;5096841;28;20425;-74
2021/07/04 00:10:20;;;;;;;18.85;15.95;;;18.70;99.60;;;;;;5065132;28;20028;-73
2021/07/04 00:12:46;;;;;;;18.95;16.90;;;18.70;99.70;;;;;;5084484;28;20035;-74
2021/07/04 00:15:14;;;;;;;18.63;16.70;;;18.60;99.80;;;;;;5077074;28;20039;-74
2021/07/04 00:17:41;;;;;;;17.55;15.80;;;18.60;99.80;;;;;;5079993;28;20039;-74
2021/07/04 00:20:11;;;;;;;18.52;16.63;;;18.60;99.90;;;;;;5065425;28;20036;-75
2021/07/04 00:22:38;;;;;;;18.52;16.40;;;18.50;99.90;;;;;;5083205;28;20036;-75
2021/07/04 00:25:09;;;;;;;18.15;16.35;;;18.60;99.90;;;;;;5080606;28;20040;-75
2021/07/04 00:27:36;;;;;;;17.30;15.60;;;18.50;99.90;;;;;;5084612;28;20039;-75
2021/07/04 00:30:06;;;;;;;18.38;16.50;;;18.50;99.90;;;;;;5082984;28;20040;-75
2021/07/04 00:32:32;;;;;;;20.52;18.40;;;18.50;99.90;;;;;;5084729;28;20044;-75
2021/07/04 00:34:58;;;;;;;19.60;17.52;;;18.50;99.90;;;;;;5061025;28;20095;-75
2021/07/04 00:37:24;;;;;;;19.80;17.70;;;18.50;99.90;;;;;;5049982;28;20122;-75
2021/07/04 00:39:50;;;;;;;16.65;14.90;;;18.50;99.90;;;;;;5064833;28;20166;-75
2021/07/04 00:42:16;;;;;;;20.75;18.75;;;18.40;99.90;;;;;;5082192;28;20035;-74
2021/07/04 00:44:42;;;;;;;20.75;18.65;;;18.40;99.90;;;;;;5084918;28;20032;-75
2021/07/04 00:47:08;;;;;;;19.80;17.67;;;18.40;99.90;;;;;;5082456;28;20043;-75
2021/07/04 00:49:33;;;;;;;22.20;19.88;;;18.40;99.90;;;;;;5101070;28;20048;-75
2021/07/04 00:52:00;;;;;;;19.05;17.10;;;18.40;99.90;;;;;;5082082;28;20040;-75
2021/07/04 00:54:26;;;;;;;19.85;17.88;;;18.40;99.90;;;;;;5083249;28;20040;-74
2021/07/04 00:56:55;;;;;;;23.83;21.23;;;18.40;99.90;;;;;;5083986;28;20040;-74
2021/07/04 00:59:21;;;;;;;21.40;19.27;;;18.40;99.90;;;;;;5078960;28;20051;-75
2021/07/04 01:01:48;;;;;;;22.95;20.30;;;18.40;99.90;;;;;;5087267;28;20040;-75
2021/07/04 01:04:14;;;;;;;21.48;19.35;;;18.40;99.90;;;;;;5084621;28;20496;-75
2021/07/04 01:06:41;;;;;;;20.42;18.33;;;18.30;99.90;;;;;;5083549;28;20035;-75
2021/07/04 01:09:07;;;;;;;26.25;22.98;;;18.30;99.90;;;;;;5082953;28;20040;-75
2021/07/04 01:11:34;;;;;;;29.90;23.58;;;18.30;99.90;;;;;;5082717;28;20036;-75
2021/07/04 01:14:01;;;;;;;22.05;19.83;;;18.30;99.90;;;;;;5078665;28;20083;-75
2021/07/04 01:16:27;;;;;;;30.05;25.60;;;18.30;99.90;;;;;;5080489;28;20056;-75
2021/07/04 01:18:54;;;;;;;34.53;26.08;;;18.30;99.90;;;;;;5065932;28;20038;-75
2021/07/04 01:21:20;;;;;;;21.00;19.00;;;18.30;99.90;;;;;;5079043;28;20044;-75
2021/07/04 01:23:47;;;;;;;24.70;22.08;;;18.30;99.90;;;;;;5047706;28;20041;-75
2021/07/04 01:26:13;;;;;;;23.38;20.92;;;18.30;99.90;;;;;;5082540;28;20043;-75
2021/07/04 01:28:39;;;;;;;25.02;22.42;;;18.30;99.90;;;;;;5081150;28;20395;-75
2021/07/04 01:31:05;;;;;;;22.88;20.60;;;18.30;99.90;;;;;;5064313;28;20046;-75
2021/07/04 01:33:31;;;;;;;24.80;22.17;;;18.20;99.90;;;;;;5075977;28;20036;-75
2021/07/04 01:36:00;;;;;;;27.02;24.23;;;18.20;99.90;;;;;;5064241;28;20036;-75
2021/07/04 01:38:25;;;;;;;32.08;25.73;;;18.20;99.90;;;;;;5065059;28;20123;-75
2021/07/04 01:40:52;;;;;;;30.98;27.25;;;18.20;99.90;;;;;;5081585;28;20119;-75
2021/07/04 01:43:18;;;;;;;37.63;29.45;;;18.20;99.90;;;;;;5080725;28;20074;-75
2021/07/04 01:45:44;;;;;;;29.45;25.77;;;18.20;99.90;;;;;;5080146;28;20471;-75
2021/07/04 01:48:10;;;;;;;29.13;25.35;;;18.20;99.90;;;;;;5082026;28;22058;-75
2021/07/04 01:50:39;;;;;;;25.40;22.65;;;18.10;99.90;;;;;;5084875;28;20028;-75
2021/07/04 01:53:05;;;;;;;27.33;24.27;;;18.10;99.90;;;;;;5080025;28;20093;-74
2021/07/04 01:55:31;;;;;;;22.48;20.17;;;18.10;99.90;;;;;;5081708;28;20042;-75
2021/07/04 01:57:58;;;;;;;28.00;22.33;;;18.10;99.90;;;;;;5083154;28;20734;-74
2021/07/04 02:00:30;;;;;;;29.35;25.02;;;18.00;99.90;;;;;;5079983;28;20095;-74
2021/07/04 02:03:00;;;;;;;30.83;26.90;;;18.00;99.90;;;;;;5086517;28;20034;-75
2021/07/04 02:05:30;;;;;;;26.95;24.02;;;18.00;99.90;;;;;;5086241;28;20028;-75
2021/07/04 02:07:56;;;;;;;28.42;25.50;;;18.00;99.90;;;;;;5087650;28;20399;-75
2021/07/04 02:10:25;;;;;;;26.05;22.92;;;18.00;99.90;;;;;;5095427;28;20487;-75
2021/07/04 02:12:51;;;;;;;28.50;24.93;;;18.00;99.90;;;;;;5085371;28;20035;-75
2021/07/04 02:15:20;;;;;;;28.17;25.35;;;18.00;99.90;;;;;;5086498;28;20578;-75
2021/07/04 02:17:47;;;;;;;25.73;23.08;;;18.00;99.90;;;;;;5082386;28;20148;-75
2021/07/04 02:20:34;;;;;;;27.80;24.98;;;18.00;99.90;;;;;;5084565;28;20039;-75
2021/07/04 02:23:31;;;;;;;25.98;23.45;;;18.00;99.90;;;;;;5083614;28;20117;-75
2021/07/04 02:26:00;;;;;;;26.40;23.65;;;18.00;99.90;;;;;;5085421;28;20056;-75
2021/07/04 02:28:28;;;;;;;26.63;24.02;;;17.90;99.90;;;;;;5085719;28;20213;-75
2021/07/04 02:30:55;;;;;;;24.05;21.55;;;18.00;99.90;;;;;;5086482;28;20123;-75
2021/07/04 02:33:24;;;;;;;27.58;24.88;;;18.00;99.90;;;;;;5087726;28;20506;-75
2021/07/04 02:35:52;;;;;;;25.17;22.67;;;18.00;99.90;;;;;;5086949;28;20073;-75
2021/07/04 02:38:19;;;;;;;25.65;23.00;;;17.90;99.90;;;;;;5084729;28;20501;-75
2021/07/04 02:40:46;;;;;;;26.70;23.25;;;17.90;99.90;;;;;;5103735;28;20048;-75
2021/07/04 02:43:20;;;;;;;27.83;24.88;;;17.90;99.90;;;;;;5102695;28;20078;-75
2021/07/04 02:45:47;;;;;;;28.52;25.45;;;17.90;99.90;;;;;;5090044;28;20039;-75
2021/07/04 02:48:13;;;;;;;32.25;28.35;;;17.90;99.90;;;;;;5084311;28;20036;-76
2021/07/04 02:50:41;;;;;;;30.65;27.35;;;17.90;99.90;;;;;;5090030;28;20036;-76
2021/07/04 02:53:09;;;;;;;27.60;24.05;;;17.80;99.90;;;;;;5083885;28;20036;-76
2021/07/04 02:55:38;;;;;;;28.45;25.45;;;17.80;99.90;;;;;;5084076;28;20047;-75
2021/07/04 02:58:06;;;;;;;30.05;25.70;;;17.90;99.90;;;;;;5086602;28;20494;-75
2021/07/04 03:00:32;;;;;;;28.30;25.15;;;17.80;99.90;;;;;;5086956;28;20059;-75
2021/07/04 03:03:01;;;;;;;27.50;24.70;;;17.80;99.90;;;;;;5086775;28;20059;-75
2021/07/04 03:05:30;;;;;;;37.30;30.58;;;17.80;99.90;;;;;;5086074;28;20406;-75
2021/07/04 03:07:56;;;;;;;26.85;23.67;;;17.80;99.90;;;;;;5074165;28;20033;-75
2021/07/04 03:10:23;;;;;;;32.50;28.98;;;17.80;99.90;;;;;;5082606;28;20040;-75
2021/07/04 03:12:50;;;;;;;29.80;26.67;;;17.80;99.90;;;;;;5047894;28;20050;-75
2021/07/04 03:15:17;;;;;;;29.70;26.58;;;17.80;99.90;;;;;;5085807;28;20048;-75
2021/07/04 03:17:43;;;;;;;32.50;28.55;;;17.80;99.90;;;;;;5048437;28;20404;-75
2021/07/04 03:20:11;;;;;;;42.35;31.73;;;17.80;99.90;;;;;;5068586;28;20396;-75
2021/07/04 03:22:37;;;;;;;27.08;24.25;;;17.80;99.90;;;;;;5095470;28;20908;-75
2021/07/04 03:25:06;;;;;;;31.63;28.02;;;17.80;99.90;;;;;;5069052;28;20102;-75
2021/07/04 03:27:37;;;;;;;30.88;27.55;;;17.90;99.90;;;;;;5085440;28;20040;-75
2021/07/04 03:30:09;;;;;;;50.45;34.78;;;17.90;99.90;;;;;;5084879;28;20044;-75
2021/07/04 03:32:35;;;;;;;29.33;26.27;;;17.90;99.90;;;;;;5087183;28;20038;-75
2021/07/04 03:35:04;;;;;;;36.65;31.00;;;17.90;99.90;;;;;;5084612;28;20443;-75
2021/07/04 03:37:30;;;;;;;29.80;26.65;;;17.90;99.90;;;;;;5085600;28;20653;-75
2021/07/04 03:39:56;;;;;;;32.90;29.23;;;17.90;99.90;;;;;;5052039;28;20043;-76
2021/07/04 03:42:22;;;;;;;32.42;28.95;;;17.90;99.90;;;;;;5086661;28;20052;-75
2021/07/04 03:44:48;;;;;;;32.05;28.75;;;17.90;99.90;;;;;;5084148;28;20203;-75
2021/07/04 03:47:14;;;;;;;33.22;29.63;;;18.00;99.90;;;;;;5079180;28;20039;-75
2021/07/04 03:49:40;;;;;;;37.15;31.35;;;17.90;99.90;;;;;;5069061;28;20040;-75
2021/07/04 03:52:06;;;;;;;35.58;31.73;;;17.90;99.90;;;;;;5084357;28;20101;-75
2021/07/04 03:54:32;;;;;;;32.03;27.92;;;17.90;99.90;;;;;;5100613;28;20441;-75
2021/07/04 03:56:58;;;;;;;35.25;29.70;;;17.90;99.90;;;;;;5081715;28;20048;-76
2021/07/04 03:59:24;;;;;;;41.30;35.08;;;17.90;99.90;;;;;;5085058;28;20450;-75
2021/07/04 04:01:50;;;;;;;36.42;32.30;;;17.90;99.90;;;;;;5084226;28;20044;-75
2021/07/04 04:04:16;;;;;;;35.75;31.27;;;17.90;99.90;;;;;;5070111;28;20040;-75
2021/07/04 04:06:50;;;;;;;46.15;35.75;;;18.00;99.90;;;;;;5070749;28;20410;-76
2021/07/04 04:09:16;;;;;;;28.23;25.27;;;18.00;99.90;;;;;;5076880;28;20134;-76
2021/07/04 04:11:42;;;;;;;33.22;29.02;;;18.00;99.90;;;;;;5087131;28;20089;-76
2021/07/04 04:14:08;;;;;;;37.03;32.35;;;18.00;99.90;;;;;;5077158;28;20052;-75
2021/07/04 04:16:34;;;;;;;60.65;40.15;;;18.00;99.90;;;;;;5086235;28;20522;-76
2021/07/04 04:19:00;;;;;;;34.15;30.55;;;18.10;99.90;;;;;;5081363;28;20047;-75
2021/07/04 04:21:25;;;;;;;44.35;35.65;;;18.00;99.90;;;;;;5065731;28;20040;-75
2021/07/04 04:23:51;;;;;;;67.15;38.60;;;18.10;99.90;;;;;;5094351;28;20131;-75
2021/07/04 04:26:17;;;;;;;33.28;29.27;;;18.10;99.90;;;;;;5047988;28;20043;-76
2021/07/04 04:28:43;;;;;;;35.22;31.00;;;18.10;99.90;;;;;;5084194;28;20044;-75
2021/07/04 04:31:09;;;;;;;35.85;31.90;;;18.10;99.90;;;;;;5048141;28;20044;-76
2021/07/04 04:33:36;;;;;;;35.00;31.20;;;18.10;99.90;;;;;;5085298;28;20089;-76
2021/07/04 04:36:01;;;;;;;29.88;26.92;;;18.10;99.90;;;;;;5083857;28;20040;-76
2021/07/04 04:38:30;;;;;;;36.05;32.15;;;18.10;99.90;;;;;;5084469;28;20040;-76
2021/07/04 04:40:56;;;;;;;41.97;35.78;;;18.10;99.90;;;;;;5066656;28;20043;-74
2021/07/04 04:43:22;;;;;;;35.63;29.95;;;18.10;99.90;;;;;;5083395;28;20483;-76
2021/07/04 04:45:49;;;;;;;32.78;29.25;;;18.10;99.90;;;;;;5076547;28;20177;-76
2021/07/04 04:48:15;;;;;;;43.30;34.72;;;18.20;99.90;;;;;;5092554;28;20035;-75
2021/07/04 04:50:41;;;;;;;32.78;29.27;;;18.10;99.90;;;;;;5081153;28;20044;-76
2021/07/04 04:53:06;;;;;;;35.05;31.00;;;18.20;99.90;;;;;;5077464;28;20044;-75
2021/07/04 04:55:32;;;;;;;37.20;33.03;;;18.10;99.90;;;;;;5065612;28;20036;-75
2021/07/04 04:57:58;;;;;;;39.75;33.20;;;18.20;99.90;;;;;;5083824;28;20048;-75
2021/07/04 05:00:24;;;;;;;34.10;30.50;;;18.10;99.90;;;;;;5080265;28;20040;-75
2021/07/04 05:02:50;;;;;;;31.27;28.02;;;18.20;99.90;;;;;;5060108;28;20047;-75
2021/07/04 05:05:16;;;;;;;42.45;34.00;;;18.20;99.90;;;;;;5090554;28;20048;-76
2021/07/04 05:07:44;;;;;;;40.63;33.22;;;18.20;99.90;;;;;;5078632;28;20093;-75
2021/07/04 05:10:11;;;;;;;33.67;30.05;;;18.20;99.90;;;;;;5083231;28;20040;-76
2021/07/04 05:12:37;;;;;;;36.42;31.30;;;18.30;99.90;;;;;;5081011;28;20532;-76
2021/07/04 05:15:03;;;;;;;37.75;32.20;;;18.30;99.90;;;;;;5077772;28;20052;-75
2021/07/04 05:17:29;;;;;;;29.83;26.77;;;18.30;99.90;;;;;;5080330;28;20119;-75
2021/07/04 05:19:55;;;;;;;32.00;27.85;;;18.30;99.90;;;;;;5078578;28;20119;-76
2021/07/04 05:22:24;;;;;;;34.15;29.35;;;18.30;99.90;;;;;;5059311;28;20040;-75
2021/07/04 05:24:51;;;;;;;29.50;26.27;;;18.30;99.90;;;;;;5082031;28;20379;-75
2021/07/04 05:27:17;;;;;;;24.77;22.17;;;18.40;99.90;;;;;;5084988;28;20036;-81
2021/07/04 05:29:43;;;;;;;27.60;24.65;;;18.30;99.90;;;;;;5082210;28;20453;-81
2021/07/04 05:32:09;;;;;;;26.23;23.63;;;18.30;99.90;;;;;;5063822;28;20422;-82
2021/07/04 05:34:35;;;;;;;26.63;23.92;;;18.30;99.90;;;;;;5071893;28;20060;-80
2021/07/04 05:37:01;;;;;;;24.83;22.20;;;18.30;99.90;;;;;;5083451;28;20047;-81
2021/07/04 05:39:33;;;;;;;25.17;21.48;;;18.30;99.90;;;;;;5059918;28;20123;-81
2021/07/04 05:41:59;;;;;;;25.73;23.13;;;18.30;99.90;;;;;;5074950;28;20040;-81
2021/07/04 05:44:24;;;;;;;27.45;24.33;;;18.40;99.90;;;;;;5083057;28;20101;-81
2021/07/04 05:46:51;;;;;;;25.42;22.52;;;18.40;99.90;;;;;;5064642;28;20395;-81
2021/07/04 05:49:17;;;;;;;25.90;22.20;;;18.50;99.90;;;;;;5082258;28;20032;-82
2021/07/04 05:51:44;;;;;;;23.92;21.25;;;18.50;99.90;;;;;;5084591;28;20032;-80
2021/07/04 05:54:10;;;;;;;22.08;19.83;;;18.50;99.90;;;;;;5082695;28;20138;-80
2021/07/04 05:56:38;;;;;;;22.77;20.38;;;18.50;99.90;;;;;;5064933;28;20052;-82
2021/07/04 05:59:05;;;;;;;22.80;20.35;;;18.40;99.90;;;;;;5083115;28;20040;-82
2021/07/04 06:01:31;;;;;;;21.02;18.83;;;18.40;99.90;;;;;;5084475;28;20123;-76
2021/07/04 06:04:00;;;;;;;22.38;20.08;;;18.40;99.90;;;;;;5082625;28;20477;-75
2021/07/04 06:06:26;;;;;;;24.10;21.50;;;18.40;99.90;;;;;;5093509;28;20596;-76
2021/07/04 06:08:52;;;;;;;24.88;22.27;;;18.40;99.90;;;;;;5067670;28;20032;-76
2021/07/04 06:11:18;;;;;;;22.20;19.90;;;18.50;99.90;;;;;;5081803;28;20036;-75
2021/07/04 06:13:44;;;;;;;23.67;21.00;;;18.50;99.90;;;;;;5083683;28;20036;-76
2021/07/04 06:16:10;;;;;;;26.23;22.13;;;18.50;99.90;;;;;;5078842;28;20504;-76
2021/07/04 06:18:36;;;;;;;21.30;19.20;;;18.60;99.90;;;;;;5081261;28;20518;-75
2021/07/04 06:21:03;;;;;;;22.58;20.35;;;18.60;99.90;;;;;;5080806;28;20036;-76
2021/07/04 06:23:29;;;;;;;25.23;22.58;;;18.70;99.90;;;;;;5075371;28;20086;-76
2021/07/04 06:25:55;;;;;;;22.45;20.08;;;18.70;99.90;;;;;;5081879;28;20044;-76
2021/07/04 06:28:21;;;;;;;24.50;21.95;;;18.70;99.90;;;;;;5079821;28;20119;-76
2021/07/04 06:30:47;;;;;;;23.67;21.15;;;18.70;99.90;;;;;;5080381;28;20036;-76
2021/07/04 06:33:13;;;;;;;25.42;22.73;;;18.70;99.90;;;;;;5061103;28;20896;-76
2021/07/04 06:35:39;;;;;;;24.42;22.00;;;18.70;99.90;;;;;;5080462;28;20036;-75
2021/07/04 06:38:05;;;;;;;25.52;22.60;;;18.70;99.90;;;;;;5083845;28;20040;-76
2021/07/04 06:40:36;;;;;;;22.65;20.02;;;18.80;99.90;;;;;;5081065;28;20040;-75
2021/07/04 06:43:02;;;;;;;25.13;22.50;;;18.80;99.90;;;;;;5081700;28;20040;-75
2021/07/04 06:45:28;;;;;;;22.90;20.60;;;18.90;99.90;;;;;;5085471;28;20086;-76
2021/07/04 06:47:54;;;;;;;23.33;20.95;;;18.90;99.90;;;;;;5081545;28;20040;-76
2021/07/04 06:50:21;;;;;;;22.73;20.42;;;18.90;99.90;;;;;;5081755;28;20032;-76
2021/07/04 06:52:47;;;;;;;22.33;20.02;;;18.90;99.90;;;;;;5079998;28;20036;-76
2021/07/04 06:55:14;;;;;;;23.98;21.67;;;19.00;99.90;;;;;;5065443;28;20604;-76
2021/07/04 06:57:43;;;;;;;21.48;19.20;;;19.00;99.90;;;;;;5085474;28;20036;-77
2021/07/04 07:00:14;;;;;;;21.55;19.35;;;19.20;99.90;;;;;;5082119;28;20040;-75
2021/07/04 07:02:44;;;;;;;24.35;22.05;;;19.30;99.90;;;;;;5082081;28;20394;-76
2021/07/04 07:05:11;;;;;;;23.02;20.63;;;19.50;99.90;;;;;;5063526;28;20051;-76
2021/07/04 07:07:37;;;;;;;23.05;20.70;;;19.80;99.90;;;;;;5067201;28;20123;-76
2021/07/04 07:10:06;;;;;;;20.13;18.25;;;20.00;99.90;;;;;;5065100;28;20042;-76
2021/07/04 07:12:32;;;;;;;18.77;16.95;;;20.10;99.90;;;;;;5085059;28;20101;-76
2021/07/04 07:15:01;;;;;;;17.92;16.38;;;20.20;99.90;;;;;;5083645;28;20060;-75
2021/07/04 07:17:30;;;;;;;17.65;16.00;;;20.20;99.90;;;;;;5079437;28;20171;-76
2021/07/04 07:19:56;;;;;;;17.88;16.23;;;20.20;99.90;;;;;;5079868;28;20040;-76
2021/07/04 07:22:22;;;;;;;16.35;14.80;;;20.20;99.90;;;;;;5083485;28;20046;-76
2021/07/04 07:24:49;;;;;;;17.50;15.80;;;20.10;99.90;;;;;;5079122;28;20052;-76
2021/07/04 07:27:16;;;;;;;17.13;15.52;;;20.10;99.90;;;;;;5081980;28;20518;-76
2021/07/04 07:29:42;;;;;;;17.80;16.00;;;20.00;99.80;;;;;;5083376;28;20036;-76
2021/07/04 07:32:08;;;;;;;16.75;15.20;;;20.00;99.90;;;;;;5078084;28;20145;-76
2021/07/04 07:34:34;;;;;;;17.02;15.43;;;20.00;99.90;;;;;;5081492;28;20036;-76
2021/07/04 07:37:00;;;;;;;17.65;15.95;;;20.00;99.90;;;;;;5064550;28;20055;-76
2021/07/04 07:39:26;;;;;;;16.50;14.90;;;19.90;99.90;;;;;;5084315;28;20093;-76
2021/07/04 07:41:52;;;;;;;19.25;17.35;;;19.90;99.90;;;;;;5077866;28;20170;-76
2021/07/04 07:44:18;;;;;;;16.75;14.98;;;20.00;99.90;;;;;;5060049;28;20123;-76
2021/07/04 07:46:45;;;;;;;17.17;15.38;;;20.10;99.90;;;;;;5075622;28;20055;-76
2021/07/04 07:49:13;;;;;;;16.85;15.23;;;20.20;99.90;;;;;;5079477;28;20032;-76
2021/07/04 07:51:40;;;;;;;16.08;14.55;;;20.30;99.90;;;;;;5085353;28;20046;-76
2021/07/04 07:54:06;;;;;;;15.88;14.38;;;20.50;99.90;;;;;;5082191;28;20173;-76
2021/07/04 07:56:32;;;;;;;15.60;14.20;;;20.60;99.80;;;;;;5067383;28;20119;-76
2021/07/04 07:59:03;;;;;;;15.10;13.65;;;20.60;99.50;;;;;;5085796;28;20643;-77
2021/07/04 08:01:29;;;;;;;14.93;13.43;;;20.60;99.50;;;;;;5082954;28;20036;-76
2021/07/04 08:03:55;;;;;;;15.60;14.20;;;20.50;99.00;;;;;;5085630;28;20084;-77
2021/07/04 08:06:21;;;;;;;16.35;14.70;;;20.40;99.20;;;;;;5081414;28;20036;-76
2021/07/04 08:08:47;;;;;;;17.17;15.48;;;20.40;99.10;;;;;;5082481;28;20145;-76
2021/07/04 08:11:13;;;;;;;15.48;13.98;;;20.30;99.00;;;;;;5085547;28;20460;-75
2021/07/04 08:13:40;;;;;;;19.23;17.42;;;20.40;99.30;;;;;;5082986;28;20383;-77
2021/07/04 08:16:06;;;;;;;19.73;17.83;;;20.40;98.80;;;;;;5078454;28;20110;-76
2021/07/04 08:18:32;;;;;;;20.73;18.73;;;20.30;98.50;;;;;;5045918;28;20417;-76
2021/07/04 08:20:58;;;;;;;18.13;16.48;;;20.30;98.60;;;;;;5086039;28;20040;-76
2021/07/04 08:23:24;;;;;;;18.00;16.10;;;20.20;98.70;;;;;;5078443;28;20677;-75
2021/07/04 08:25:53;;;;;;;17.38;15.77;;;20.20;98.90;;;;;;5080963;28;20412;-76
2021/07/04 08:28:19;;;;;;;19.95;18.00;;;20.20;99.00;;;;;;5062235;28;20042;-75
2021/07/04 08:30:46;;;;;;;20.25;18.35;;;20.20;99.00;;;;;;5075028;28;20032;-75
2021/07/04 08:33:13;;;;;;;18.38;16.67;;;20.30;99.00;;;;;;5079161;28;20047;-76
2021/07/04 08:35:39;;;;;;;20.10;18.30;;;20.30;98.90;;;;;;5072193;28;20568;-76
2021/07/04 08:38:06;;;;;;;20.00;17.38;;;20.40;99.00;;;;;;5060309;28;20056;-74
2021/07/04 08:40:32;;;;;;;20.67;18.80;;;20.70;98.90;;;;;;5071914;28;20036;-76
2021/07/04 08:43:01;;;;;;;17.55;15.82;;;20.80;99.00;;;;;;5072102;28;20052;-76
2021/07/04 08:45:27;;;;;;;18.95;17.05;;;21.00;98.00;;;;;;5080299;28;20047;-76
2021/07/04 08:47:58;;;;;;;17.58;15.55;;;21.20;97.40;;;;;;5069878;28;20077;-75
2021/07/04 08:50:24;;;;;;;17.33;15.63;;;21.40;97.40;;;;;;5078780;28;20047;-76
2021/07/04 08:52:50;;;;;;;15.55;14.07;;;21.60;97.20;;;;;;5077185;28;20032;-75
2021/07/04 08:55:17;;;;;;;15.00;13.55;;;21.80;97.10;;;;;;5057226;28;20321;-74
2021/07/04 08:57:44;;;;;;;14.93;12.35;;;21.90;96.60;;;;;;5071154;28;20115;-76
2021/07/04 09:00:15;;;;;;;13.05;11.48;;;21.90;96.30;;;;;;5060727;28;20045;-75
2021/07/04 09:02:44;;;;;;;15.85;14.38;;;21.90;95.80;;;;;;5090519;28;20825;-75
2021/07/04 09:05:12;;;;;;;17.75;16.05;;;21.90;95.00;;;;;;5072124;28;20508;-76
2021/07/04 09:07:39;;;;;;;20.20;18.20;;;21.80;95.30;;;;;;5072547;28;20093;-75
2021/07/04 09:10:16;;;;;;;21.90;19.75;;;21.80;95.20;;;;;;5069852;28;21100;-75
2021/07/04 09:12:46;;;;;;;21.33;19.42;;;21.70;94.90;;;;;;5078063;28;20728;-75
2021/07/04 09:15:26;;;;;;;20.73;18.83;;;21.70;94.80;;;;;;5075966;28;20145;-74
2021/07/04 09:17:56;;;;;;;19.75;17.80;;;21.70;95.30;;;;;;5074355;28;20124;-75
2021/07/04 09:20:29;;;;;;;18.55;16.75;;;21.90;95.30;;;;;;5075780;28;20498;-76
2021/07/04 09:22:55;;;;;;;16.90;15.40;;;22.10;95.00;;;;;;5072804;28;20044;-74
2021/07/04 09:25:39;;;;;;;14.25;12.93;;;22.20;94.50;;;;;;5070247;28;20036;-75
2021/07/04 09:28:10;;;;;;;14.63;13.23;;;22.30;93.80;;;;;;5067916;28;20036;-75
2021/07/04 09:30:49;;;;;;;14.90;13.50;;;22.50;93.90;;;;;;5055315;28;20040;-76
2021/07/04 09:33:33;;;;;;;18.08;16.38;;;22.60;93.90;;;;;;5087954;28;20043;-75
2021/07/04 09:36:06;;;;;;;14.77;13.35;;;22.80;93.20;;;;;;5069370;28;20071;-76
2021/07/04 09:38:42;;;;;;;17.75;15.93;;;22.80;93.40;;;;;;5072465;28;20063;-74
2021/07/04 09:41:11;;;;;;;18.45;16.75;;;22.90;93.40;;;;;;5071855;28;20763;-75
2021/07/04 09:43:38;;;;;;;21.35;19.45;;;23.00;93.30;;;;;;5070196;28;20130;-76
2021/07/04 09:46:05;;;;;;;25.73;23.23;;;22.90;92.90;;;;;;5072225;28;20044;-75
2021/07/04 09:48:34;;;;;;;25.15;22.75;;;22.80;91.10;;;;;;5077116;28;20819;-74
2021/07/04 09:51:03;;;;;;;26.75;24.23;;;22.50;92.00;;;;;;5070880;28;20098;-75
2021/07/04 09:53:45;;;;;;;26.73;24.25;;;22.60;93.10;;;;;;5083029;28;20178;-75
2021/07/04 09:56:23;;;;;;;21.80;19.73;;;22.70;92.80;;;;;;5071952;28;20036;-75
2021/07/04 09:58:57;;;;;;;21.60;19.60;;;22.80;92.40;;;;;;5086610;28;20376;-76
2021/07/04 10:01:45;;;;;;;18.35;16.63;;;22.70;92.20;;;;;;5078151;28;20415;-74
2021/07/04 10:04:35;;;;;;;17.20;15.50;;;22.60;92.30;;;;;;5075023;28;21414;-75
2021/07/04 10:07:04;;;;;;;14.65;12.80;;;22.70;92.40;;;;;;5085753;28;20036;-75
2021/07/04 10:09:31;;;;;;;14.10;12.70;;;22.80;92.00;;;;;;5075677;28;20047;-75
2021/07/04 10:11:58;;;;;;;14.05;12.65;;;22.90;91.20;;;;;;5078192;28;20037;-74
2021/07/04 10:14:26;;;;;;;13.05;11.85;;;22.80;91.60;;;;;;5092488;28;20506;-75
2021/07/04 10:16:53;;;;;;;12.90;11.50;;;22.70;92.20;;;;;;5074173;28;20129;-76
2021/07/04 10:19:29;;;;;;;12.07;10.98;;;22.70;92.60;;;;;;5078784;28;20044;-75
2021/07/04 10:22:07;;;;;;;16.15;12.02;;;22.90;93.10;;;;;;5084073;28;20040;-75
2021/07/04 10:24:33;;;;;;;12.50;11.25;;;23.20;92.60;;;;;;5085446;28;20032;-74
2021/07/04 10:27:06;;;;;;;12.85;11.55;;;23.30;92.10;;;;;;5087800;28;20032;-74
2021/07/04 10:29:32;;;;;;;16.13;14.02;;;23.50;91.70;;;;;;5065444;28;20072;-75
2021/07/04 10:32:24;;;;;;;13.52;12.13;;;23.70;91.40;;;;;;5091840;28;20168;-74
2021/07/04 10:34:51;;;;;;;13.95;12.05;;;23.90;90.60;;;;;;5080859;28;20048;-74
2021/07/04 10:37:30;;;;;;;13.68;11.77;;;24.00;89.90;;;;;;5077293;28;20143;-75
2021/07/04 10:40:19;;;;;;;17.48;15.60;;;24.10;91.00;;;;;;5081581;28;20042;-76
2021/07/04 10:42:46;;;;;;;19.13;17.15;;;24.20;88.50;;;;;;5064940;28;20130;-75
2021/07/04 10:45:37;;;;;;;19.60;17.58;;;24.20;87.40;;;;;;5062432;28;20044;-74
2021/07/04 10:48:27;;;;;;;23.10;20.65;;;24.30;87.20;;;;;;5084076;28;20040;-75
2021/07/04 10:51:13;;;;;;;19.90;17.80;;;24.40;86.30;;;;;;5078882;28;20051;-75
2021/07/04 10:53:55;;;;;;;22.05;19.75;;;24.50;86.00;;;;;;5076152;28;20034;-75
2021/07/04 10:56:33;;;;;;;20.58;18.33;;;24.60;85.60;;;;;;5095572;28;20170;-74
2021/07/04 10:59:03;;;;;;;19.73;17.63;;;24.60;85.70;;;;;;5082518;28;20043;-76
2021/07/04 11:01:58;;;;;;;17.33;15.52;;;24.60;86.60;;;;;;5076992;28;20096;-75
2021/07/04 11:04:30;;;;;;;20.20;16.15;;;24.70;87.70;;;;;;5083494;28;20436;-75
2021/07/04 11:07:04;;;;;;;19.10;17.10;;;24.80;85.20;;;;;;5097940;28;20032;-76
2021/07/04 11:09:55;;;;;;;17.20;15.40;;;25.00;85.10;;;;;;5084771;28;20040;-75
2021/07/04 11:12:31;;;;;;;15.88;14.32;;;25.10;83.90;;;;;;5085543;28;20040;-75
2021/07/04 11:15:13;;;;;;;15.05;13.45;;;25.20;83.60;;;;;;5074175;28;20119;-75
2021/07/04 11:18:01;;;;;;;14.35;12.95;;;25.30;83.30;;;;;;5075119;28;20093;-76
2021/07/04 11:20:57;;;;;;;12.70;11.35;;;25.50;82.70;;;;;;5075663;28;20036;-75
2021/07/04 11:23:26;;;;;;;12.68;11.38;;;25.50;83.30;;;;;;5082067;28;20092;-76
2021/07/04 11:26:00;;;;;;;12.23;10.95;;;25.60;83.60;;;;;;5048490;28;20092;-75
2021/07/04 11:28:36;;;;;;;12.88;11.68;;;25.60;80.20;;;;;;5085721;28;20044;-75
2021/07/04 11:31:03;;;;;;;11.07;9.93;;;25.50;82.80;;;;;;5080505;28;20051;-75
2021/07/04 11:33:36;;;;;;;11.40;10.30;;;25.50;82.50;;;;;;5101005;28;20076;-75
2021/07/04 11:36:02;;;;;;;11.82;10.65;;;25.50;81.80;;;;;;5060208;28;20052;-75
2021/07/04 11:38:34;;;;;;;11.88;10.57;;;25.60;82.20;;;;;;5083101;28;20032;-75
2021/07/04 11:41:01;;;;;;;11.40;10.30;;;25.50;80.00;;;;;;5085349;28;20048;-76
2021/07/04 11:43:29;;;;;;;11.63;10.43;;;25.50;80.60;;;;;;5065919;28;20036;-76
2021/07/04 11:45:58;;;;;;;10.82;9.73;;;25.50;80.90;;;;;;5082586;28;20047;-76
2021/07/04 11:49:00;;;;;;;11.98;10.77;;;25.50;79.20;;;;;;5076057;28;20131;-76
2021/07/04 11:51:32;;;;;;;11.70;10.60;;;25.60;78.90;;;;;;5041570;28;20083;-75
2021/07/04 11:54:12;;;;;;;11.68;10.48;;;25.60;77.70;;;;;;5066072;28;20151;-76
2021/07/04 11:56:38;;;;;;;;;;;25.60;78.30;;;;;;5082933;28;20040;-75
2021/07/04 11:59:21;;;;;;;11.32;10.07;;;25.70;78.40;;;;;;5081645;28;19931;-76
2021/07/04 12:01:59;;;;;;;10.57;9.57;;;25.70;79.40;;;;;;5078900;28;20055;-76
2021/07/04 12:04:39;;;;;;;12.13;9.55;;;25.90;78.90;;;;;;5079683;28;20059;-75
2021/07/04 12:07:05;;;;;;;;;;;26.10;78.30;;;;;;5082607;28;20759;-76
2021/07/04 12:09:37;;;;;;;10.65;9.60;;;26.20;77.40;;;;;;5099351;28;19920;-76
2021/07/04 12:12:04;;;;;;;10.98;9.88;;;26.20;76.60;;;;;;5083953;28;20070;-75
2021/07/04 12:14:36;;;;;;;10.82;9.73;;;26.10;75.90;;;;;;5078702;28;20040;-75
2021/07/04 12:17:24;;;;;;;10.60;9.63;;;25.90;74.60;;;;;;5094539;28;20090;-75
2021/07/04 12:20:11;;;;;;;10.40;9.40;;;25.90;78.60;;;;;;5098736;28;20050;-76
2021/07/04 12:22:48;;;;;;;12.18;9.07;;;25.70;78.60;;;;;;5083652;28;20036;-76
2021/07/04 12:25:19;;;;;;;11.30;9.63;;;25.50;79.90;;;;;;5087386;28;20493;-75
2021/07/04 12:27:53;;;;;;;11.02;9.82;;;25.60;81.10;;;;;;5085518;28;20044;-75
2021/07/04 12:30:31;;;;;;;10.35;8.82;;;25.70;79.20;;;;;;5083404;28;20040;-76
2021/07/04 12:33:12;;;;;;;10.02;9.07;;;25.80;80.70;;;;;;5083498;28;20139;-77
2021/07/04 12:35:46;;;;;;;9.55;8.65;;;25.90;78.80;;;;;;5081045;28;20118;-76
2021/07/04 12:38:16;;;;;;;10.73;9.68;;;26.00;79.50;;;;;;5075312;28;20055;-75